createdAt,value
2018-03-26T00:00:41.049Z,10.21
2018-03-26T00:02:34.109Z,10.16
2018-03-26T00:03:33.938Z,10.23
2018-03-26T00:05:27.000Z,10.18
2018-03-26T00:06:26.789Z,10.20
2018-03-26T00:08:19.844Z,10.10
2018-03-26T00:09:19.658Z,10.09
2018-03-26T00:11:12.775Z,10.08
2018-03-26T00:12:12.505Z,10.10
2018-03-26T00:14:05.907Z,10.01
2018-03-26T00:15:05.880Z,10.08
2018-03-26T00:16:59.300Z,10.03
2018-03-26T00:17:59.238Z,10.08
2018-03-26T00:19:52.312Z,10.08
2018-03-26T00:20:52.120Z,10.02
2018-03-26T00:22:45.618Z,10.05
2018-03-26T00:23:45.470Z,10.02
2018-03-26T00:25:38.847Z,9.94
2018-03-26T00:26:38.830Z,9.90
2018-03-26T00:28:32.224Z,9.84
2018-03-26T00:29:32.171Z,9.83
2018-03-26T00:31:25.087Z,9.73
2018-03-26T00:32:25.063Z,9.69
2018-03-26T00:34:18.428Z,9.54
2018-03-26T00:35:18.399Z,9.59
2018-03-26T00:37:11.825Z,9.51
2018-03-26T00:38:11.780Z,9.50
2018-03-26T00:40:05.193Z,9.42
2018-03-26T00:41:05.144Z,9.37
2018-03-26T00:42:59.536Z,9.37
2018-03-26T00:43:59.507Z,9.27
2018-03-26T00:45:52.449Z,9.27
2018-03-26T00:46:52.369Z,9.30
2018-03-26T00:48:45.256Z,9.32
2018-03-26T00:49:45.809Z,9.30
2018-03-26T00:51:38.231Z,9.26
2018-03-26T00:52:38.100Z,9.26
2018-03-26T00:54:31.607Z,9.27
2018-03-26T00:55:31.439Z,9.29
2018-03-26T00:57:24.363Z,9.32
2018-03-26T00:58:24.325Z,9.26
2018-03-26T01:00:17.838Z,9.24
2018-03-26T01:01:17.672Z,9.26
2018-03-26T01:03:10.596Z,9.30
2018-03-26T01:04:10.523Z,9.24
2018-03-26T01:06:03.926Z,9.37
2018-03-26T01:07:03.885Z,9.36
2018-03-26T01:08:56.785Z,9.42
2018-03-26T01:09:56.743Z,9.37
2018-03-26T01:11:49.635Z,9.40
2018-03-26T01:12:49.605Z,9.40
2018-03-26T01:14:42.517Z,9.50
2018-03-26T01:15:43.033Z,9.48
2018-03-26T01:17:35.459Z,9.45
2018-03-26T01:18:35.327Z,9.51
2018-03-26T01:20:28.228Z,9.54
2018-03-26T01:21:28.763Z,9.50
2018-03-26T01:23:21.600Z,9.50
2018-03-26T01:24:21.572Z,9.42
2018-03-26T01:26:15.044Z,9.40
2018-03-26T01:27:14.928Z,9.37
2018-03-26T01:29:08.307Z,9.36
2018-03-26T01:30:08.273Z,9.26
2018-03-26T01:32:01.170Z,9.30
2018-03-26T01:33:01.158Z,9.14
2018-03-26T01:34:54.046Z,9.16
2018-03-26T01:35:54.021Z,9.16
2018-03-26T01:37:47.667Z,9.04
2018-03-26T01:38:47.383Z,9.09
2018-03-26T01:40:40.429Z,9.14
2018-03-26T01:41:40.233Z,9.15
2018-03-26T01:43:33.660Z,9.16
2018-03-26T01:44:33.619Z,9.14
2018-03-26T01:46:27.205Z,9.04
2018-03-26T01:47:26.959Z,9.18
2018-03-26T01:49:20.358Z,9.03
2018-03-26T01:50:20.888Z,9.04
2018-03-26T01:52:13.704Z,9.06
2018-03-26T01:53:13.674Z,9.12
2018-03-26T01:55:07.145Z,9.03
2018-03-26T01:56:07.024Z,9.01
2018-03-26T01:58:00.415Z,9.01
2018-03-26T01:59:00.389Z,8.96
2018-03-26T02:00:53.274Z,8.96
2018-03-26T02:01:53.237Z,8.99
2018-03-26T02:03:46.188Z,9.01
2018-03-26T02:04:46.161Z,8.95
2018-03-26T02:06:40.065Z,8.98
2018-03-26T02:07:38.961Z,8.90
2018-03-26T02:09:31.867Z,8.85
2018-03-26T02:10:31.831Z,8.78
2018-03-26T02:12:24.825Z,8.88
2018-03-26T02:13:24.832Z,8.81
2018-03-26T02:15:18.258Z,8.89
2018-03-26T02:16:18.146Z,8.85
2018-03-26T02:18:11.041Z,8.81
2018-03-26T02:19:11.009Z,8.78
2018-03-26T02:21:03.916Z,8.88
2018-03-26T02:22:03.876Z,8.80
2018-03-26T02:23:57.253Z,8.93
2018-03-26T02:24:57.219Z,8.80
2018-03-26T02:26:50.156Z,8.88
2018-03-26T02:27:50.076Z,8.81
2018-03-26T02:29:42.974Z,8.98
2018-03-26T02:30:42.944Z,8.83
2018-03-26T02:32:35.849Z,8.86
2018-03-26T02:33:35.806Z,8.78
2018-03-26T02:35:28.709Z,8.88
2018-03-26T02:36:28.675Z,8.85
2018-03-26T02:38:21.575Z,8.80
2018-03-26T02:39:21.534Z,8.92
2018-03-26T02:41:14.437Z,8.80
2018-03-26T02:42:14.392Z,8.88
2018-03-26T02:44:07.863Z,8.88
2018-03-26T02:45:07.766Z,8.80
2018-03-26T02:47:00.769Z,8.86
2018-03-26T02:48:00.634Z,8.86
2018-03-26T02:49:54.006Z,8.93
2018-03-26T02:50:53.970Z,8.92
2018-03-26T02:52:46.856Z,8.98
2018-03-26T02:53:46.839Z,9.01
2018-03-26T02:55:39.887Z,8.95
2018-03-26T02:56:39.708Z,8.92
2018-03-26T02:58:32.589Z,8.83
2018-03-26T02:59:32.548Z,8.93
2018-03-26T03:01:25.439Z,8.93
2018-03-26T03:02:25.429Z,8.92
2018-03-26T03:04:18.797Z,8.83
2018-03-26T03:05:18.765Z,8.80
2018-03-26T03:07:11.669Z,8.96
2018-03-26T03:08:12.186Z,8.81
2018-03-26T03:10:05.042Z,8.81
2018-03-26T03:11:04.991Z,8.89
2018-03-26T03:12:58.515Z,8.88
2018-03-26T03:13:58.348Z,8.81
2018-03-26T03:15:51.743Z,8.88
2018-03-26T03:16:51.702Z,8.81
2018-03-26T03:18:45.081Z,8.93
2018-03-26T03:19:45.067Z,8.80
2018-03-26T03:21:37.966Z,8.81
2018-03-26T03:22:37.929Z,8.78
2018-03-26T03:24:31.084Z,8.85
2018-03-26T03:25:30.788Z,8.88
2018-03-26T03:27:24.157Z,8.81
2018-03-26T03:28:24.124Z,8.78
2018-03-26T03:30:17.143Z,8.85
2018-03-26T03:31:16.996Z,8.88
2018-03-26T03:33:10.123Z,8.90
2018-03-26T03:34:09.856Z,8.90
2018-03-26T03:36:02.779Z,8.95
2018-03-26T03:37:02.719Z,8.80
2018-03-26T03:38:55.667Z,8.95
2018-03-26T03:39:55.575Z,8.93
2018-03-26T03:41:49.098Z,8.92
2018-03-26T03:42:48.937Z,8.86
2018-03-26T03:44:42.463Z,8.89
2018-03-26T03:45:42.272Z,8.83
2018-03-26T03:47:35.248Z,8.95
2018-03-26T03:48:35.164Z,8.83
2018-03-26T03:50:28.043Z,8.92
2018-03-26T03:51:28.019Z,8.92
2018-03-26T03:53:21.191Z,8.81
2018-03-26T03:54:21.150Z,8.85
2018-03-26T03:56:14.624Z,8.80
2018-03-26T03:57:14.017Z,8.80
2018-03-26T03:59:06.938Z,8.88
2018-03-26T04:00:06.910Z,8.81
2018-03-26T04:02:00.389Z,8.88
2018-03-26T04:03:00.238Z,8.90
2018-03-26T04:04:53.140Z,8.85
2018-03-26T04:05:53.110Z,8.85
2018-03-26T04:07:46.569Z,8.89
2018-03-26T04:08:46.480Z,8.83
2018-03-26T04:10:39.968Z,8.85
2018-03-26T04:11:39.800Z,8.80
2018-03-26T04:13:32.695Z,8.85
2018-03-26T04:14:32.653Z,8.83
2018-03-26T04:16:26.045Z,8.81
2018-03-26T04:17:26.584Z,8.85
2018-03-26T04:19:19.420Z,8.81
2018-03-26T04:20:19.948Z,8.83
2018-03-26T04:22:12.893Z,8.81
2018-03-26T04:23:12.737Z,8.86
2018-03-26T04:25:05.807Z,8.81
2018-03-26T04:26:05.581Z,8.83
2018-03-26T04:27:58.467Z,8.86
2018-03-26T04:28:58.442Z,8.81
2018-03-26T04:30:54.247Z,8.86
2018-03-26T04:31:51.861Z,8.85
2018-03-26T04:33:45.282Z,8.80
2018-03-26T04:34:44.786Z,8.81
2018-03-26T04:36:37.888Z,8.80
2018-03-26T04:37:37.649Z,8.75
2018-03-26T04:39:30.698Z,8.77
2018-03-26T04:40:30.497Z,8.78
2018-03-26T04:42:23.583Z,8.75
2018-03-26T04:43:23.363Z,8.72
2018-03-26T04:45:16.766Z,8.80
2018-03-26T04:46:16.721Z,8.75
2018-03-26T04:48:09.951Z,8.86
2018-03-26T04:49:09.615Z,8.72
2018-03-26T04:51:03.867Z,8.71
2018-03-26T04:52:02.924Z,8.83
2018-03-26T04:53:56.686Z,8.81
2018-03-26T04:54:56.340Z,8.85
2018-03-26T04:56:50.126Z,8.92
2018-03-26T04:57:49.776Z,8.92
2018-03-26T04:59:44.071Z,8.93
2018-03-26T05:00:43.150Z,9.01
2018-03-26T05:02:38.448Z,8.96
2018-03-26T05:03:36.394Z,9.01
2018-03-26T05:05:29.490Z,8.96
2018-03-26T05:06:29.268Z,8.96
2018-03-26T05:08:23.178Z,9.06
2018-03-26T05:09:22.711Z,9.04
2018-03-26T05:11:17.545Z,9.04
2018-03-26T05:12:16.017Z,9.03
2018-03-26T05:14:09.705Z,9.12
2018-03-26T05:15:09.312Z,9.04
2018-03-26T05:17:03.136Z,9.19
2018-03-26T05:18:02.940Z,9.09
2018-03-26T05:19:58.739Z,9.24
2018-03-26T05:20:56.130Z,9.14
2018-03-26T05:22:50.467Z,9.09
2018-03-26T05:23:49.549Z,9.14
2018-03-26T05:25:43.207Z,9.11
2018-03-26T05:26:42.829Z,9.09
2018-03-26T05:28:36.609Z,9.11
2018-03-26T05:29:36.230Z,9.14
2018-03-26T05:31:29.627Z,9.18
2018-03-26T05:32:29.039Z,9.15
2018-03-26T05:34:23.021Z,9.11
2018-03-26T05:35:22.425Z,9.14
2018-03-26T05:37:15.836Z,9.18
2018-03-26T05:38:15.844Z,9.18
2018-03-26T05:40:10.218Z,9.12
2018-03-26T05:41:09.147Z,9.08
2018-03-26T05:43:02.326Z,9.01
2018-03-26T05:44:02.574Z,9.06
2018-03-26T05:45:55.735Z,9.09
2018-03-26T05:46:55.416Z,8.98
2018-03-26T05:48:48.836Z,8.95
2018-03-26T05:49:48.765Z,8.98
2018-03-26T05:51:41.851Z,8.95
2018-03-26T05:52:41.694Z,8.93
2018-03-26T05:54:35.056Z,9.01
2018-03-26T05:55:35.588Z,8.95
2018-03-26T05:57:31.013Z,8.99
2018-03-26T05:58:29.826Z,9.03
2018-03-26T06:00:24.249Z,9.01
2018-03-26T06:01:22.914Z,9.04
2018-03-26T06:03:15.731Z,9.01
2018-03-26T06:04:15.764Z,8.98
2018-03-26T06:06:08.593Z,8.99
2018-03-26T06:07:08.588Z,8.93
2018-03-26T06:09:01.460Z,8.80
2018-03-26T06:10:01.439Z,8.78
2018-03-26T06:11:55.767Z,8.85
2018-03-26T06:12:55.351Z,8.77
2018-03-26T06:14:50.225Z,8.74
2018-03-26T06:15:47.864Z,8.75
2018-03-26T06:17:40.789Z,8.81
2018-03-26T06:18:40.531Z,8.74
2018-03-26T06:20:34.915Z,8.74
2018-03-26T06:21:35.226Z,8.80
2018-03-26T06:23:28.507Z,8.85
2018-03-26T06:24:28.257Z,8.85
2018-03-26T06:26:22.504Z,8.83
2018-03-26T06:27:21.137Z,8.77
2018-03-26T06:29:14.305Z,8.77
2018-03-26T06:30:13.978Z,8.78
2018-03-26T06:32:09.325Z,8.77
2018-03-26T06:33:08.628Z,8.77
2018-03-26T06:35:01.618Z,8.77
2018-03-26T06:36:01.223Z,8.81
2018-03-26T06:37:55.318Z,8.85
2018-03-26T06:38:54.721Z,8.85
2018-03-26T06:41:11.638Z,8.83
2018-03-26T06:42:11.682Z,8.93
2018-03-26T06:44:05.774Z,8.92
2018-03-26T06:45:05.236Z,8.96
2018-03-26T06:46:58.686Z,8.99
2018-03-26T06:47:59.108Z,8.98
2018-03-26T06:49:52.057Z,8.96
2018-03-26T06:50:52.499Z,8.99
2018-03-26T06:52:45.060Z,8.98
2018-03-26T06:54:59.292Z,8.90
2018-03-26T06:55:58.390Z,8.99
2018-03-26T06:57:52.430Z,9.04
2018-03-26T06:58:51.906Z,9.01
2018-03-26T07:00:45.869Z,9.15
2018-03-26T07:01:45.324Z,9.14
2018-03-26T07:03:38.633Z,9.09
2018-03-26T07:04:38.594Z,9.08
2018-03-26T07:06:31.413Z,8.99
2018-03-26T07:07:31.820Z,8.99
2018-03-26T07:09:24.902Z,9.01
2018-03-26T07:10:24.452Z,8.93
2018-03-26T07:12:19.272Z,8.93
2018-03-26T07:13:17.908Z,8.80
2018-03-26T07:15:11.660Z,8.96
2018-03-26T07:16:13.823Z,9.06
2018-03-26T07:18:04.674Z,9.23
2018-03-26T07:19:04.546Z,9.26
2018-03-26T07:20:58.379Z,9.32
2018-03-26T07:21:58.344Z,9.34
2018-03-26T07:23:52.323Z,9.34
2018-03-26T07:24:53.267Z,9.40
2018-03-26T07:26:45.009Z,9.51
2018-03-26T07:27:46.104Z,9.54
2018-03-26T07:29:54.767Z,9.55
2018-03-26T07:30:54.403Z,9.67
2018-03-26T07:32:48.679Z,9.73
2018-03-26T07:33:47.773Z,9.80
2018-03-26T07:35:41.681Z,9.85
2018-03-26T07:36:41.151Z,9.93
2018-03-26T07:38:35.952Z,9.84
2018-03-26T07:39:34.891Z,9.85
2018-03-26T07:41:28.275Z,9.88
2018-03-26T07:42:28.304Z,9.98
2018-03-26T07:44:22.671Z,10.01
2018-03-26T07:45:21.696Z,9.98
2018-03-26T07:47:14.976Z,10.10
2018-03-26T07:48:14.958Z,10.30
2018-03-26T07:50:29.746Z,10.39
2018-03-26T07:51:30.212Z,10.55
2018-03-26T07:53:23.202Z,10.58
2018-03-26T07:54:22.737Z,10.55
2018-03-26T07:56:17.278Z,10.57
2018-03-26T07:57:16.369Z,10.57
2018-03-26T07:59:09.749Z,10.62
2018-03-26T08:00:09.409Z,10.57
2018-03-26T08:02:03.131Z,10.64
2018-03-26T08:03:03.364Z,10.61
2018-03-26T08:04:56.646Z,10.80
2018-03-26T08:05:56.275Z,10.79
2018-03-26T08:07:49.649Z,10.87
2018-03-26T08:08:49.592Z,11.00
2018-03-26T08:10:43.099Z,11.16
2018-03-26T08:11:43.041Z,11.13
2018-03-26T08:13:35.878Z,11.15
2018-03-26T08:14:35.548Z,11.12
2018-03-26T08:16:29.229Z,11.11
2018-03-26T08:17:28.804Z,11.08
2018-03-26T08:19:22.113Z,11.12
2018-03-26T08:20:22.069Z,11.27
2018-03-26T08:22:15.039Z,11.09
2018-03-26T08:23:15.532Z,11.08
2018-03-26T08:25:08.391Z,11.01
2018-03-26T08:26:08.025Z,11.12
2018-03-26T08:28:16.609Z,11.36
2018-03-26T08:29:16.123Z,11.30
2018-03-26T08:31:10.063Z,11.19
2018-03-26T08:32:09.516Z,11.13
2018-03-26T08:34:04.004Z,11.15
2018-03-26T08:35:03.033Z,11.13
2018-03-26T08:36:56.844Z,11.15
2018-03-26T08:37:57.314Z,11.19
2018-03-26T08:39:49.941Z,11.13
2018-03-26T08:40:49.695Z,11.27
2018-03-26T08:42:48.278Z,11.52
2018-03-26T08:43:43.709Z,11.43
2018-03-26T08:45:37.457Z,11.51
2018-03-26T08:46:37.178Z,11.61
2018-03-26T08:48:31.358Z,11.88
2018-03-26T08:49:30.500Z,11.80
2018-03-26T08:51:25.226Z,12.07
2018-03-26T08:52:23.788Z,12.21
2018-03-26T08:54:17.600Z,12.38
2018-03-26T08:55:18.061Z,12.25
2018-03-26T08:57:11.444Z,12.40
2018-03-26T08:58:10.651Z,12.35
2018-03-26T09:00:05.457Z,12.41
2018-03-26T09:01:05.834Z,12.30
2018-03-26T09:02:58.793Z,12.26
2018-03-26T09:03:58.392Z,12.36
2018-03-26T09:05:55.179Z,12.43
2018-03-26T09:06:56.056Z,12.41
2018-03-26T09:08:50.661Z,12.15
2018-03-26T09:09:50.153Z,12.11
2018-03-26T09:11:44.463Z,12.15
2018-03-26T09:12:43.896Z,12.28
2018-03-26T09:14:38.874Z,12.43
2018-03-26T09:15:37.886Z,12.30
2018-03-26T09:17:31.800Z,12.36
2018-03-26T09:18:31.627Z,12.25
2018-03-26T09:20:32.292Z,12.14
2018-03-26T09:21:28.535Z,12.05
2018-03-26T09:23:22.999Z,12.05
2018-03-26T09:24:20.590Z,12.05
2018-03-26T09:26:15.368Z,12.05
2018-03-26T09:27:15.624Z,11.97
2018-03-26T09:29:07.991Z,12.08
2018-03-26T09:30:08.334Z,12.17
2018-03-26T09:32:01.671Z,12.15
2018-03-26T09:33:02.115Z,12.18
2018-03-26T09:34:54.641Z,12.30
2018-03-26T09:35:54.642Z,12.32
2018-03-26T09:37:48.996Z,12.26
2018-03-26T09:38:48.952Z,12.43
2018-03-26T09:40:46.929Z,12.44
2018-03-26T09:41:46.764Z,12.59
2018-03-26T09:43:44.797Z,12.65
2018-03-26T09:44:44.768Z,12.62
2018-03-26T09:46:38.073Z,12.65
2018-03-26T09:47:38.077Z,12.35
2018-03-26T09:49:30.942Z,12.25
2018-03-26T09:50:31.488Z,12.38
2018-03-26T09:52:25.346Z,12.21
2018-03-26T09:53:26.845Z,12.23
2018-03-26T09:55:18.842Z,12.25
2018-03-26T09:56:18.299Z,12.22
2018-03-26T09:58:12.029Z,12.33
2018-03-26T09:59:12.020Z,12.33
2018-03-26T10:01:05.106Z,12.40
2018-03-26T10:02:04.597Z,12.41
2018-03-26T10:04:03.028Z,12.13
2018-03-26T10:05:02.933Z,12.15
2018-03-26T10:06:56.427Z,12.29
2018-03-26T10:07:55.763Z,12.26
2018-03-26T10:09:49.127Z,12.38
2018-03-26T10:10:49.129Z,12.32
2018-03-26T10:12:42.488Z,12.28
2018-03-26T10:13:44.624Z,12.11
2018-03-26T10:15:36.473Z,12.04
2018-03-26T10:16:35.415Z,12.05
2018-03-26T10:18:29.227Z,12.04
2018-03-26T10:20:43.894Z,12.05
2018-03-26T10:21:43.170Z,11.93
2018-03-26T10:23:36.968Z,11.97
2018-03-26T10:24:36.933Z,11.97
2018-03-26T10:26:31.942Z,12.10
2018-03-26T10:27:31.353Z,12.05
2018-03-26T10:29:24.684Z,12.14
2018-03-26T10:30:24.675Z,12.26
2018-03-26T10:32:18.100Z,12.15
2018-03-26T10:33:17.693Z,12.25
2018-03-26T10:35:11.590Z,12.41
2018-03-26T10:36:11.065Z,12.33
2018-03-26T10:38:04.552Z,12.30
2018-03-26T10:39:05.374Z,12.17
2018-03-26T10:41:00.939Z,12.25
2018-03-26T10:41:57.459Z,12.22
2018-03-26T10:43:51.211Z,12.25
2018-03-26T10:44:51.145Z,12.41
2018-03-26T10:46:44.173Z,12.40
2018-03-26T10:47:43.741Z,12.43
2018-03-26T10:50:28.171Z,12.65
2018-03-26T10:51:27.746Z,12.59
2018-03-26T10:53:22.215Z,12.58
2018-03-26T10:54:22.186Z,12.68
2018-03-26T10:56:20.753Z,12.62
2018-03-26T10:57:14.258Z,12.71
2018-03-26T10:59:20.822Z,12.68
2018-03-26T11:00:21.605Z,12.66
2018-03-26T11:02:15.118Z,12.66
2018-03-26T11:03:14.181Z,12.58
2018-03-26T11:05:09.342Z,12.41
2018-03-26T11:06:10.073Z,12.46
2018-03-26T11:08:05.313Z,12.41
2018-03-26T11:09:01.528Z,12.35
2018-03-26T11:10:59.497Z,12.47
2018-03-26T11:11:58.236Z,12.44
2018-03-26T11:15:33.057Z,12.69
2018-03-26T11:16:30.529Z,12.73
2018-03-26T11:18:29.114Z,12.87
2018-03-26T11:19:27.163Z,12.87
2018-03-26T11:21:17.615Z,12.76
2018-03-26T11:22:17.218Z,12.76
2018-03-26T11:24:16.040Z,12.81
2018-03-26T11:25:15.951Z,12.73
2018-03-26T11:27:22.839Z,12.65
2018-03-26T11:28:22.782Z,12.54
2018-03-26T11:30:18.561Z,12.66
2018-03-26T11:31:16.117Z,12.66
2018-03-26T11:33:12.726Z,12.69
2018-03-26T11:34:13.029Z,12.54
2018-03-26T11:36:05.983Z,12.54
2018-03-26T11:37:07.867Z,12.53
2018-03-26T11:38:58.846Z,12.54
2018-03-26T11:39:58.783Z,12.66
2018-03-26T11:41:52.408Z,12.79
2018-03-26T11:42:51.780Z,12.77
2018-03-26T11:44:45.578Z,12.99
2018-03-26T11:45:45.132Z,13.11
2018-03-26T11:47:40.079Z,13.21
2018-03-26T11:48:40.074Z,13.39
2018-03-26T11:50:44.282Z,13.60
2018-03-26T11:51:44.229Z,13.75
2018-03-26T11:53:37.912Z,13.68
2018-03-26T11:54:37.198Z,13.76
2018-03-26T11:56:30.965Z,13.90
2018-03-26T11:57:30.491Z,14.01
2018-03-26T11:59:24.438Z,13.94
2018-03-26T12:00:23.929Z,13.93
2018-03-26T12:02:18.050Z,14.11
2018-03-26T12:03:17.052Z,14.05
2018-03-26T12:05:10.869Z,14.27
2018-03-26T12:06:10.407Z,13.90
2018-03-26T12:08:07.345Z,13.98
2018-03-26T12:09:04.791Z,13.98
2018-03-26T12:10:57.594Z,14.16
2018-03-26T12:11:57.242Z,14.08
2018-03-26T12:13:55.456Z,13.68
2018-03-26T12:14:54.565Z,13.68
2018-03-26T12:16:48.869Z,13.55
2018-03-26T12:17:48.383Z,13.55
2018-03-26T12:19:55.985Z,13.57
2018-03-26T12:20:55.528Z,13.65
2018-03-26T12:22:49.321Z,13.63
2018-03-26T12:23:48.917Z,13.67
2018-03-26T12:25:42.327Z,13.72
2018-03-26T12:26:43.227Z,13.73
2018-03-26T12:28:35.272Z,13.68
2018-03-26T12:29:35.169Z,13.67
2018-03-26T12:31:30.880Z,13.65
2018-03-26T12:32:31.212Z,13.58
2018-03-26T12:34:24.622Z,13.68
2018-03-26T12:35:24.542Z,13.78
2018-03-26T12:37:18.869Z,13.75
2018-03-26T12:38:17.951Z,13.79
2018-03-26T12:40:11.854Z,13.94
2018-03-26T12:41:13.941Z,14.00
2018-03-26T12:43:56.292Z,13.98
2018-03-26T12:44:56.295Z,13.80
2018-03-26T12:46:50.138Z,13.73
2018-03-26T12:47:50.034Z,13.71
2018-03-26T12:49:46.094Z,13.58
2018-03-26T12:50:46.006Z,13.53
2018-03-26T12:52:39.414Z,13.35
2018-03-26T12:53:39.779Z,13.32
2018-03-26T12:55:33.331Z,13.24
2018-03-26T12:56:33.290Z,13.19
2018-03-26T12:58:26.326Z,13.19
2018-03-26T12:59:25.804Z,13.17
2018-03-26T13:01:21.896Z,13.02
2018-03-26T13:02:22.192Z,12.81
2018-03-26T13:04:18.138Z,12.73
2018-03-26T13:05:18.109Z,12.80
2018-03-26T13:07:11.621Z,12.73
2018-03-26T13:08:10.581Z,12.77
2018-03-26T13:10:04.341Z,12.77
2018-03-26T13:11:04.117Z,12.77
2018-03-26T13:12:57.737Z,12.77
2018-03-26T13:13:57.406Z,12.73
2018-03-26T13:15:51.044Z,12.81
2018-03-26T13:16:51.114Z,12.86
2018-03-26T13:18:45.435Z,12.86
2018-03-26T13:19:45.027Z,12.93
2018-03-26T13:21:38.870Z,12.91
2018-03-26T13:22:38.412Z,12.79
2018-03-26T13:24:33.624Z,12.88
2018-03-26T13:25:33.690Z,12.80
2018-03-26T13:27:27.652Z,12.83
2018-03-26T13:28:25.765Z,12.73
2018-03-26T13:30:19.162Z,12.62
2018-03-26T13:31:19.592Z,12.58
2018-03-26T13:33:13.956Z,12.59
2018-03-26T13:34:14.108Z,12.59
2018-03-26T13:36:07.560Z,12.54
2018-03-26T13:37:06.923Z,12.41
2018-03-26T13:39:00.785Z,12.46
2018-03-26T13:40:00.242Z,12.44
2018-03-26T13:41:53.894Z,12.40
2018-03-26T13:42:53.954Z,12.41
2018-03-26T13:44:55.075Z,12.38
2018-03-26T13:45:54.300Z,12.29
2018-03-26T13:47:48.698Z,12.25
2018-03-26T13:50:02.101Z,12.22
2018-03-26T13:51:01.596Z,12.23
2018-03-26T13:52:55.429Z,12.33
2018-03-26T13:53:55.102Z,12.38
2018-03-26T13:55:49.391Z,12.38
2018-03-26T13:56:48.332Z,12.43
2018-03-26T13:58:42.121Z,12.40
2018-03-26T13:59:41.769Z,12.44
2018-03-26T14:01:35.551Z,12.51
2018-03-26T14:02:35.130Z,12.54
2018-03-26T14:04:28.090Z,12.71
2018-03-26T14:05:28.407Z,12.68
2018-03-26T14:07:21.818Z,12.66
2018-03-26T14:08:21.405Z,12.76
2018-03-26T14:10:15.269Z,12.72
2018-03-26T14:11:15.147Z,12.77
2018-03-26T14:13:08.548Z,12.86
2018-03-26T14:14:08.541Z,12.87
2018-03-26T14:16:02.951Z,12.96
2018-03-26T14:17:02.478Z,12.95
2018-03-26T14:18:56.322Z,12.95
2018-03-26T14:19:57.356Z,12.93
2018-03-26T14:21:49.629Z,13.04
2018-03-26T14:22:49.872Z,12.98
2018-03-26T14:24:47.120Z,12.96
2018-03-26T14:25:47.188Z,12.99
2018-03-26T14:27:40.958Z,13.08
2018-03-26T14:28:40.879Z,12.93
2018-03-26T14:30:34.798Z,12.91
2018-03-26T14:31:33.746Z,13.05
2018-03-26T14:33:26.715Z,12.98
2018-03-26T14:34:26.669Z,12.99
2018-03-26T14:36:20.561Z,13.06
2018-03-26T14:37:21.022Z,13.08
2018-03-26T14:39:26.463Z,12.95
2018-03-26T14:40:25.120Z,12.95
2018-03-26T14:42:25.475Z,13.05
2018-03-26T14:43:25.529Z,13.08
2018-03-26T14:45:18.398Z,13.05
2018-03-26T14:46:18.522Z,13.04
2018-03-26T14:48:12.709Z,13.13
2018-03-26T14:49:11.710Z,13.06
2018-03-26T14:51:05.204Z,13.09
2018-03-26T14:52:05.217Z,13.19
2018-03-26T14:54:00.142Z,13.26
2018-03-26T14:54:59.485Z,13.19
2018-03-26T14:56:52.789Z,13.30
2018-03-26T14:57:52.414Z,13.24
2018-03-26T14:59:48.910Z,13.13
2018-03-26T15:00:46.198Z,13.13
2018-03-26T15:02:39.601Z,13.13
2018-03-26T15:03:41.126Z,13.13
2018-03-26T15:05:34.472Z,13.14
2018-03-26T15:06:33.581Z,12.99
2018-03-26T15:08:27.899Z,13.14
2018-03-26T15:09:27.326Z,13.05
2018-03-26T15:11:20.743Z,13.17
2018-03-26T15:12:20.267Z,13.08
2018-03-26T15:14:14.042Z,13.16
2018-03-26T15:15:13.618Z,13.29
2018-03-26T15:17:07.400Z,13.11
2018-03-26T15:18:07.433Z,13.08
2018-03-26T15:20:04.942Z,13.14
2018-03-26T15:21:06.279Z,13.11
2018-03-26T15:22:58.712Z,12.96
2018-03-26T15:23:58.227Z,12.96
2018-03-26T15:25:51.965Z,12.96
2018-03-26T15:26:51.997Z,12.93
2018-03-26T15:28:45.431Z,12.90
2018-03-26T15:29:45.014Z,12.95
2018-03-26T15:31:39.359Z,12.79
2018-03-26T15:32:38.737Z,12.79
2018-03-26T15:34:32.164Z,12.66
2018-03-26T15:35:32.134Z,12.63
2018-03-26T15:37:25.505Z,12.51
2018-03-26T15:38:25.481Z,12.43
2018-03-26T15:40:18.431Z,12.48
2018-03-26T15:41:17.879Z,12.43
2018-03-26T15:43:11.739Z,12.40
2018-03-26T15:44:11.652Z,12.28
2018-03-26T15:46:05.497Z,12.22
2018-03-26T15:47:05.037Z,12.15
2018-03-26T15:49:01.096Z,12.15
2018-03-26T15:49:59.334Z,12.15
2018-03-26T15:51:54.248Z,12.10
2018-03-26T15:52:52.955Z,12.17
2018-03-26T15:54:45.854Z,12.14
2018-03-26T15:56:59.556Z,12.07
2018-03-26T15:57:59.127Z,11.89
2018-03-26T15:59:53.170Z,11.95
2018-03-26T16:00:52.592Z,11.97
2018-03-26T16:02:46.405Z,11.97
2018-03-26T16:03:46.300Z,11.97
2018-03-26T16:05:39.278Z,11.82
2018-03-26T16:06:39.827Z,11.85
2018-03-26T16:08:32.217Z,11.79
2018-03-26T16:09:32.135Z,11.77
2018-03-26T16:11:25.527Z,11.76
2018-03-26T16:12:25.503Z,11.73
2018-03-26T16:14:18.660Z,11.69
2018-03-26T16:16:32.276Z,11.74
2018-03-26T16:17:32.293Z,11.67
2018-03-26T16:19:25.055Z,11.67
2018-03-26T16:20:25.416Z,11.79
2018-03-26T16:22:18.399Z,11.85
2018-03-26T16:23:18.343Z,11.88
2018-03-26T16:25:11.658Z,11.80
2018-03-26T16:26:12.706Z,11.84
2018-03-26T16:28:04.947Z,11.84
2018-03-26T16:29:04.612Z,11.88
2018-03-26T16:30:58.957Z,11.82
2018-03-26T16:31:58.566Z,11.84
2018-03-26T16:33:52.338Z,11.85
2018-03-26T16:34:51.915Z,11.85
2018-03-26T16:36:45.752Z,11.84
2018-03-26T16:37:45.330Z,11.82
2018-03-26T16:39:53.713Z,11.84
2018-03-26T16:40:53.347Z,11.95
2018-03-26T16:42:47.367Z,11.82
2018-03-26T16:43:46.738Z,11.96
2018-03-26T16:45:40.621Z,11.87
2018-03-26T16:46:40.516Z,11.80
2018-03-26T16:48:33.085Z,11.74
2018-03-26T16:49:34.001Z,11.67
2018-03-26T16:51:26.370Z,11.62
2018-03-26T16:52:26.436Z,11.62
2018-03-26T16:54:19.680Z,11.52
2018-03-26T16:55:19.676Z,11.48
2018-03-26T16:57:14.008Z,11.33
2018-03-26T16:58:13.591Z,11.27
2018-03-26T17:00:09.505Z,11.28
2018-03-26T17:02:27.180Z,11.18
2018-03-26T17:03:26.925Z,11.20
2018-03-26T17:05:20.190Z,11.18
2018-03-26T17:06:20.194Z,11.28
2018-03-26T17:08:13.637Z,11.16
2018-03-26T17:09:13.524Z,11.18
2018-03-26T17:11:06.441Z,11.20
2018-03-26T17:12:06.406Z,11.13
2018-03-26T17:13:59.830Z,11.19
2018-03-26T17:14:59.765Z,11.20
2018-03-26T17:16:52.797Z,11.22
2018-03-26T17:17:53.086Z,11.12
2018-03-26T17:19:49.872Z,11.08
2018-03-26T17:20:49.453Z,11.11
2018-03-26T17:22:42.503Z,11.12
2018-03-26T17:23:41.884Z,11.15
2018-03-26T17:25:36.878Z,11.05
2018-03-26T17:26:36.266Z,11.05
2018-03-26T17:28:32.007Z,10.98
2018-03-26T17:29:30.056Z,11.03
2018-03-26T17:31:23.176Z,11.05
2018-03-26T17:32:23.077Z,11.00
2018-03-26T17:34:16.461Z,10.91
2018-03-26T17:35:16.452Z,10.91
2018-03-26T17:37:11.246Z,10.87
2018-03-26T17:38:10.791Z,10.83
2018-03-26T17:40:07.116Z,10.78
2018-03-26T17:41:04.616Z,10.70
2018-03-26T17:42:57.970Z,10.68
2018-03-26T17:43:57.950Z,10.67
2018-03-26T17:45:51.354Z,10.58
2018-03-26T17:46:52.364Z,10.60
2018-03-26T17:48:45.201Z,10.58
2018-03-26T17:49:44.605Z,10.52
2018-03-26T17:51:38.206Z,10.42
2018-03-26T17:52:38.082Z,10.46
2018-03-26T17:54:31.460Z,10.31
2018-03-26T17:55:31.105Z,10.38
2018-03-26T17:57:24.866Z,10.31
2018-03-26T17:58:24.452Z,10.34
2018-03-26T18:00:18.134Z,10.27
2018-03-26T18:01:18.202Z,10.23
2018-03-26T18:03:12.322Z,10.24
2018-03-26T18:04:11.175Z,10.28
2018-03-26T18:06:04.960Z,10.24
2018-03-26T18:07:03.945Z,10.27
2018-03-26T18:08:57.653Z,10.28
2018-03-26T18:09:57.895Z,10.23
2018-03-26T18:11:51.676Z,10.28
2018-03-26T18:12:50.670Z,10.27
2018-03-26T18:14:44.362Z,10.27
2018-03-26T18:15:44.266Z,10.23
2018-03-26T18:17:37.805Z,10.21
2018-03-26T18:18:37.931Z,10.12
2018-03-26T18:20:31.069Z,10.18
2018-03-26T18:21:30.772Z,10.12
2018-03-26T18:23:24.498Z,10.02
2018-03-26T18:24:24.870Z,9.98
2018-03-26T18:26:18.383Z,9.93
2018-03-26T18:27:18.161Z,9.85
2018-03-26T18:29:11.248Z,9.81
2018-03-26T18:30:11.109Z,9.85
2018-03-26T18:32:05.499Z,9.72
2018-03-26T18:33:06.415Z,9.70
2018-03-26T18:34:57.894Z,9.55
2018-03-26T18:35:56.736Z,9.65
2018-03-26T18:37:52.008Z,9.57
2018-03-26T18:38:51.665Z,9.57
2018-03-26T18:40:44.523Z,9.54
2018-03-26T18:41:43.801Z,9.55
2018-03-26T18:43:37.138Z,9.52
2018-03-26T18:44:36.685Z,9.50
2018-03-26T18:46:30.328Z,9.47
2018-03-26T18:47:30.041Z,9.52
2018-03-26T18:49:22.934Z,9.40
2018-03-26T18:50:22.895Z,9.42
2018-03-26T18:52:16.798Z,9.34
2018-03-26T18:53:16.594Z,9.29
2018-03-26T18:55:09.174Z,9.24
2018-03-26T18:56:11.011Z,9.27
2018-03-26T18:58:02.868Z,9.29
2018-03-26T18:59:02.517Z,9.18
2018-03-26T19:00:56.151Z,9.01
2018-03-26T19:01:55.861Z,9.01
2018-03-26T19:03:50.502Z,9.08